Ride Results

FAWEEC 80km Monday 2012 (09-04-2012)
Ride distance: 80.0 km

Outcomes - FAWEEC 80km Monday 2012 (09-04-2012)
Division No. of Entries Retired / DNE Completed Withdrawn Ineligible V/O Percentage Completed
HW 3 - 2 - - 1 66.67%
MW 20 - 14 - - 6 70.00%
LW 19 - 13 1 - 5 68.42%
JN 12 - 8 1 - 3 66.67%
Totals 54 - 37 2 - 15 68.52%
Results - FAWEEC 80km Monday 2012 (09-04-2012)
No. Rider Horse Place Time Leg Speeds Total
Km/Hr
H/R bpm
Heavyweight
120 Craig Renner Edenfels Count Redmond 1 7:27:00 12.4, 9.4 10.74 36, 50, 55 (Avg:52)
118 Ken Gordon Cameo Mazquerade 2 (BC) 8:45:00 10.4, 8.1 9.14 36, 47, 13 (Avg:30)
123 Chris Nichols Bashan Memphis Lame L2 0:00:00 12.0, 9.0 - 38, 43, 46 (Avg:44)
Middleweight
122 Mark Grogan S'Shaada Quiddich 1 (BC) 4:57:00 15.8, 16.4 16.16 38, 43, 53 (Avg:48)
128 Matt Sample Brookleigh Ricardo 2 5:10:00 15.1, 15.7 15.48 38, 43, 45 (Avg:44)
129 Akhmed Pshunov Clovelly Park Tazeem 3 5:19:00 15.1, 14.9 15.05 26, 42, 55 (Avg:48)
140 Simone Krahnen Ardai 4 5:36:00 13.8, 14.7 14.29 41, 47, 50 (Avg:48)
153 Sabrina Stephens Mataranka Diamonds 5 5:50:00 14.7, 12.8 13.71 36, 52, 54 (Avg:53)
125 Gayle Holmes Desert Duelers Con 6 5:51:00 13.7, 13.6 13.68 50, 44, 59 (Avg:51)
136 Camille Champagne-Bargenquast Brookleigh Scarlett 7 7:08:00 12.6, 10.0 11.21 30, 44, 47 (Avg:45)
124 Jacinta Stubbings Ffire Storm 8 7:15:00 12.0, 10.1 11.03 41, 46, 47 (Avg:46)
160 Kerryn Agnew Heathfield's Khalisa 9 7:46:00 11.2, 9.5 10.30 37, 48, 45 (Avg:46)
151 Ken Moir Cameo Helmzman 10 7:47:00 10.7, 9.8 10.28 36, 46, 48 (Avg:47)
146 Timothy Sutcliffe My Cadet 11 7:54:00 10.3, 9.8 10.13 33, 46, 55 (Avg:50)
134 Casey Curtis Chelleason Rembrandt 12 8:06:00 10.3, 9.4 9.88 32, 42, 47 (Avg:44)
154 Liz Kirk Dunwingeri Aasalah 13 8:10:00 9.4, 10.2 9.80 36, 48, 53 (Avg:50)
152 Jacque Wright Wilandra Silver Destiny 14 8:37:00 10.1, 8.5 9.28 40, 42, 51 (Avg:46)
148 Jane Davidson Summervale Top Gear Lame L2 0:00:00 10.7, 9.7 - 39, 48, 59 (Avg:53)
131 Tasha Jeremy Miss Jayne Metabolics severe L2 0:00:00 17.3, 16.3 - 37, 49, 64 (Avg:56)
116 Julie Mohi Arabiana Banama Heart Rate L2 0:00:00 9.6, 8.8 - 35, 53, 61 (Avg:57)
156 Patricia Coonan Chippington Metabolics severe L1 0:00:00 28.9 - 34, 60 (Avg:60)
162 Madeleine Fisher Duray Djim Metabolics severe L1 0:00:00 11.3 - 46, 70 (Avg:70)
112 Renae Kuhn Tigerlilly Metabolics severe L1 0:00:00 27.5 - 36, 51 (Avg:51)
Lightweight
144 Clare Fleming Birramalee Queen of Hearts 1 (BC) 4:58:00 17.1, 15.1 16.11 43, 44, 47 (Avg:45)
161 Bobbi Lochtenberg Matta Mia Arad 1 4:58:00 17.1, 15.1 16.11 38, 44, 52 (Avg:48)
138 Janelle Taylor Glenewan Scout 3 5:22:00 16.2, 13.7 14.91 33, 42, 49 (Avg:45)
167 Corinne Kempter Topaz 4 5:39:00 16.2, 12.5 14.16 37, 43, 52 (Avg:47)
145 Sue Sutcliffe De Sharvell Sharkeem 5 5:55:00 14.3, 12.7 13.52 35, 44, 55 (Avg:49)
121 Kate Appleby Porcelain Doll 6 7:33:00 12.0, 9.4 10.60 32, 45, 50 (Avg:47)
143 Sue Jones Hinterland Hellfire 7 7:35:00 11.3, 9.8 10.55 67, 39, 44 (Avg:41)
159 Sasha Laws-King Heathfield's Roxy 8 7:46:00 11.2, 9.5 10.30 35, 40, 43 (Avg:41)
155 Ute Jordan Summerpark Maximus 9 7:47:00 10.7, 9.8 10.28 40, 44, 46 (Avg:45)
130 Mandy Doyle Manana Gaylord 10 8:06:00 10.2, 9.5 9.88 38, 42, 53 (Avg:47)
164 Kaylea Maher Bashir 10 8:06:00 10.2, 9.5 9.88 47, 48, 53 (Avg:50)
135 Malin Olsson Picnic Park Silver Knight 10 8:06:00 10.3, 9.4 9.88 45, 44, 54 (Avg:49)
165 Amanda Phillips Without A Doubt 13 8:19:00 8.9, 10.3 9.62 36, 41, 51 (Avg:46)
117 Claire McManus Al Dhahab Hadiyyah Lame L2 0:00:00 10.8, 14.7 - 38, 47, 46 (Avg:46)
149 Kirsty Owen Natham Park A Dishaan Lame L2 0:00:00 10.7, 39.9 - 48, 48, 49 (Avg:48)
158 Claire Wookey Marja Rasikh Lame L2 0:00:00 10.7, 7.8 - 42, 42, 59 (Avg:50)
141 Erin Krahnen Rodborough Bey Abdul Withdrawn L1 0:00:00 - - 28, 41 (Avg:41)
139 Leah Mathys Emac Lame L1 0:00:00 10.2 - 31, 38 (Avg:38)
110 Robin Young Melawondi Lame L1 0:00:00 10.6 - 32, 41 (Avg:41)
Junior
115 Jade Vergis Carnarvon Kasserine Magic 1 (BC) 4:55:00 15.8, 16.6 16.27 32, 43, 49 (Avg:46)
127 Rilene Heydenreich Tarrangower Crecendo 2 5:19:00 15.1, 14.9 15.05 32, 42, 47 (Avg:44)
142 Colleen Krahnen Dream On te 3 5:28:00 15.0, 14.2 14.63 31, 40, 45 (Avg:42)
126 Sarah Huddleston Cairo 4 5:51:00 13.7, 13.6 13.68 32, 47, 51 (Avg:49)
163 Jess Fuhlbohm Atticus 5 8:06:00 10.2, 9.5 9.88 37, 44, 56 (Avg:50)
137 Tayla Hadzi Larabi Rummanni 5 8:06:00 10.3, 9.4 9.88 41, 44, 51 (Avg:47)
150 Megan Stehouwer Woomera Thor 7 8:14:00 10.6, 8.9 9.72 34, 42, 42 (Avg:42)
157 Jordan Baker Marja Kaz 8 8:50:00 10.7, 7.8 9.06 32, 37, 48 (Avg:42)
133 Jamie Green S'Shaada Solomon Lame L2 0:00:00 14.5, 10.9 - 32, 47, 57 (Avg:52)
113 Ellie Kreicbergs Moomba Lodge Bayley Lame L2 0:00:00 8.9, 15.6 - 34, 44, 47 (Avg:45)
166 Jessica Terry Kai Hai Sterling Aaramis Lame L2 0:00:00 8.9, 10.5 - 30, 45, 39 (Avg:42)
132 Jessyca Dakin Bashan Vashti Withdrawn L1 0:00:00 - - 34, 46 (Avg:46)